North Wales, Pennsylvania
Current Conditions -  °F | °C
As of 1:15 AM on Thursday 23 Oct 2014 (Local Time) from KLOM Reporting Station
Overcast Overcast  
Wind Chill: 52°   Ceiling: 1800
Heat Index: 52°   Visibility: 7mi
Dew Point: 50°   Wind: 7mph
Humidity: 94%   Direction: 330°NNW
Pressure: 29.77"   Gusts: NA
Location:  40.21°N, 75.28°W
Report Text: KLOM 230515Z AUTO 33006KT 290V350 7SM SCT009 BKN018 OVC043 11/10 A2977 RMK AO1 P0001
Loading
Personal Weather Stations






























Interactive Weather Map
Tropical Storm Tracking
New forecast layout! Learn more

10-Day Weather Forecast

Advertisements
Track Severe Weather on mobile